Time;durP1;ratioP1;P1;durP2;ratioP2;P2;SDS_P1;SDS_P2;PMS_P1;PMS_P2;Temp;Humidity;BMP_temperature;BMP_pressure;BME280_temperature;BME280_humidity;BME280_pressure;Samples;Min_cycle;Max_cycle;Signal;HPM_P1;HPM_P2
2023/10/04 00:02:07;;;;;;;2.65;1.10;;;18.00;99.90;;;;;;5104507;28;20187;-65
2023/10/04 00:04:34;;;;;;;1.10;1.00;;;18.00;99.90;;;;;;5108124;28;20232;-65
2023/10/04 00:07:03;;;;;;;1.50;0.98;;;18.00;99.90;;;;;;5108206;28;20277;-64
2023/10/04 00:09:31;;;;;;;1.42;0.90;;;17.90;99.90;;;;;;5106200;28;20192;-65
2023/10/04 00:12:00;;;;;;;0.70;0.70;;;17.80;99.90;;;;;;5110460;28;20235;-65
2023/10/04 00:14:27;;;;;;;1.10;0.88;;;17.90;99.90;;;;;;5110354;28;20248;-65
2023/10/04 00:16:55;;;;;;;1.00;0.95;;;17.80;99.90;;;;;;5106378;28;20565;-65
2023/10/04 00:19:22;;;;;;;0.65;0.65;;;17.80;99.90;;;;;;5109816;28;20204;-66
2023/10/04 00:21:50;;;;;;;0.55;0.55;;;17.80;99.90;;;;;;5107630;28;20227;-64
2023/10/04 00:24:17;;;;;;;0.82;0.80;;;17.80;99.90;;;;;;5105776;28;20630;-64
2023/10/04 00:26:45;;;;;;;0.98;0.80;;;17.80;99.90;;;;;;5109992;28;20188;-65
2023/10/04 00:29:14;;;;;;;1.40;0.82;;;17.80;99.90;;;;;;5109388;28;20290;-66
2023/10/04 00:31:42;;;;;;;2.22;0.88;;;17.80;99.90;;;;;;5106479;28;20208;-66
2023/10/04 00:34:09;;;;;;;0.75;0.60;;;17.90;99.90;;;;;;5109215;28;20527;-65
2023/10/04 00:36:37;;;;;;;1.10;0.70;;;17.80;99.90;;;;;;5106523;28;20196;-65
2023/10/04 00:39:06;;;;;;;0.73;0.73;;;17.80;99.90;;;;;;5103820;28;20227;-66
2023/10/04 00:41:34;;;;;;;1.55;0.80;;;17.90;99.90;;;;;;5103478;28;20196;-65
2023/10/04 00:44:04;;;;;;;1.52;0.90;;;17.80;99.90;;;;;;5109842;28;20200;-65
2023/10/04 00:46:34;;;;;;;2.10;0.80;;;17.80;99.90;;;;;;5106435;28;20219;-65
2023/10/04 00:49:02;;;;;;;1.40;0.90;;;17.80;99.90;;;;;;5109157;28;20282;-65
2023/10/04 00:51:35;;;;;;;0.70;0.70;;;17.80;99.90;;;;;;5108536;28;20551;-65
2023/10/04 00:54:04;;;;;;;1.02;0.73;;;17.80;99.90;;;;;;5104633;28;20769;-65
2023/10/04 00:56:32;;;;;;;2.13;1.02;;;17.70;99.90;;;;;;5122794;27;20192;-65
2023/10/04 00:59:03;;;;;;;2.47;0.85;;;17.70;99.90;;;;;;5108146;28;20712;-66
2023/10/04 01:01:32;;;;;;;1.58;0.95;;;17.70;99.90;;;;;;5105146;28;20513;-66
2023/10/04 01:04:00;;;;;;;1.50;0.80;;;17.70;99.90;;;;;;5109214;28;20184;-64
2023/10/04 01:06:28;;;;;;;1.58;0.95;;;17.70;99.90;;;;;;5106757;28;20286;-65
2023/10/04 01:08:56;;;;;;;1.08;0.80;;;17.60;99.90;;;;;;5107349;28;20307;-64
2023/10/04 01:11:23;;;;;;;2.80;1.10;;;17.60;99.90;;;;;;5108653;28;20230;-64
2023/10/04 01:13:53;;;;;;;1.73;1.05;;;17.60;99.90;;;;;;5105706;28;20200;-65
2023/10/04 01:16:23;;;;;;;3.08;1.20;;;17.50;99.90;;;;;;5105777;28;20554;-65
2023/10/04 01:18:52;;;;;;;1.13;0.82;;;17.50;99.90;;;;;;5144572;27;20196;-65
2023/10/04 01:21:20;;;;;;;1.08;0.70;;;17.40;99.90;;;;;;5106056;28;20214;-65
2023/10/04 01:23:48;;;;;;;2.15;0.77;;;17.40;99.90;;;;;;5134117;27;20261;-65
2023/10/04 01:26:25;;;;;;;1.70;0.70;;;17.40;99.90;;;;;;5111220;28;20192;-66
2023/10/04 01:28:55;;;;;;;2.53;0.60;;;17.40;99.90;;;;;;5107995;28;20195;-65
2023/10/04 01:31:22;;;;;;;4.20;1.10;;;17.40;99.90;;;;;;5112831;28;20287;-65
2023/10/04 01:33:49;;;;;;;0.63;0.63;;;17.40;99.90;;;;;;5112497;28;20188;-65
2023/10/04 01:36:16;;;;;;;1.10;0.90;;;17.40;99.90;;;;;;5107186;28;20323;-64
2023/10/04 01:38:44;;;;;;;2.83;1.02;;;17.40;99.90;;;;;;5111321;28;20298;-65
2023/10/04 01:41:12;;;;;;;1.95;0.90;;;17.40;99.90;;;;;;5113252;28;20184;-66
2023/10/04 01:43:40;;;;;;;1.38;0.80;;;17.40;99.90;;;;;;5107106;28;20195;-65
2023/10/04 01:46:08;;;;;;;1.75;0.85;;;17.40;99.90;;;;;;5111144;28;20200;-65
2023/10/04 01:48:36;;;;;;;1.98;1.02;;;17.40;99.90;;;;;;5106663;28;20718;-65
2023/10/04 01:51:04;;;;;;;1.20;0.80;;;17.40;99.90;;;;;;5108817;28;20277;-65
2023/10/04 01:53:33;;;;;;;0.60;0.60;;;17.40;99.90;;;;;;5109882;28;20201;-65
2023/10/04 01:56:00;;;;;;;2.08;0.90;;;17.40;99.90;;;;;;5108576;28;20196;-65
2023/10/04 01:58:29;;;;;;;1.55;0.90;;;17.40;99.90;;;;;;5128509;27;20270;-65
2023/10/04 02:00:57;;;;;;;1.13;0.70;;;17.30;99.90;;;;;;5113090;28;20191;-65
2023/10/04 02:03:24;;;;;;;2.33;1.02;;;17.40;99.90;;;;;;5107406;28;20271;-65
2023/10/04 02:05:57;;;;;;;1.27;0.90;;;17.30;99.90;;;;;;5114053;27;20200;-64
2023/10/04 02:08:25;;;;;;;4.00;0.90;;;17.30;99.90;;;;;;5110125;28;20714;-65
2023/10/04 02:10:54;;;;;;;0.98;0.88;;;17.30;99.90;;;;;;5141725;27;20554;-65
2023/10/04 02:13:25;;;;;;;2.58;1.00;;;17.30;99.90;;;;;;5112236;28;20555;-64
2023/10/04 02:15:54;;;;;;;3.47;1.05;;;17.40;99.90;;;;;;5109250;28;20200;-64
2023/10/04 02:18:23;;;;;;;1.85;0.85;;;17.30;99.90;;;;;;5107885;28;20192;-63
2023/10/04 02:20:53;;;;;;;2.20;1.05;;;17.30;99.90;;;;;;5111288;28;20208;-64
2023/10/04 02:23:21;;;;;;;1.47;0.97;;;17.30;99.90;;;;;;5101186;28;20613;-65
2023/10/04 02:25:48;;;;;;;1.65;0.95;;;17.20;99.90;;;;;;5107992;28;20298;-65
2023/10/04 02:28:22;;;;;;;1.75;0.80;;;17.20;99.90;;;;;;5111642;27;20203;-65
2023/10/04 02:30:50;;;;;;;1.23;0.70;;;17.20;99.90;;;;;;5106776;28;20179;-65
2023/10/04 02:33:18;;;;;;;1.60;1.00;;;17.20;99.90;;;;;;5142874;27;20219;-64
2023/10/04 02:35:48;;;;;;;1.35;0.80;;;17.20;99.90;;;;;;5111093;28;20368;-65
2023/10/04 02:38:19;;;;;;;3.85;1.00;;;17.20;99.90;;;;;;5140232;27;20208;-64
2023/10/04 02:40:50;;;;;;;1.10;0.60;;;17.20;99.90;;;;;;5110970;28;20207;-65
2023/10/04 02:43:17;;;;;;;0.60;0.60;;;17.20;99.90;;;;;;5105630;28;20207;-65
2023/10/04 02:45:44;;;;;;;4.07;1.02;;;17.20;99.90;;;;;;5107581;28;20207;-65
2023/10/04 02:48:13;;;;;;;1.77;0.90;;;17.20;99.90;;;;;;5131183;27;20203;-66
2023/10/04 02:50:43;;;;;;;1.27;1.02;;;17.20;99.90;;;;;;5110749;28;20223;-65
2023/10/04 02:53:16;;;;;;;1.00;0.90;;;17.20;99.90;;;;;;5102135;28;20746;-64
2023/10/04 02:55:44;;;;;;;1.10;1.00;;;17.20;99.90;;;;;;5140189;27;20203;-64
2023/10/04 02:58:12;;;;;;;1.42;0.60;;;17.20;99.90;;;;;;5107023;28;20594;-65
2023/10/04 03:00:45;;;;;;;1.67;0.88;;;17.20;99.90;;;;;;5113144;27;20203;-64
2023/10/04 03:03:19;;;;;;;1.70;0.93;;;17.20;99.90;;;;;;5141869;27;20208;-64
2023/10/04 03:05:51;;;;;;;2.22;1.02;;;17.10;99.90;;;;;;5144645;27;20230;-64
2023/10/04 03:08:19;;;;;;;1.67;0.80;;;17.20;99.90;;;;;;5105242;28;20196;-64
2023/10/04 03:10:50;;;;;;;1.85;0.88;;;17.20;99.90;;;;;;5111940;28;20214;-64
2023/10/04 03:13:22;;;;;;;0.80;0.73;;;17.10;99.90;;;;;;5109261;28;20296;-65
2023/10/04 03:15:52;;;;;;;2.10;1.13;;;17.20;99.90;;;;;;5106990;28;20231;-65
2023/10/04 03:18:20;;;;;;;2.60;0.77;;;17.20;99.90;;;;;;5109261;28;20222;-65
2023/10/04 03:21:00;;;;;;;1.95;0.80;;;17.20;99.90;;;;;;5134223;27;20253;-64
2023/10/04 03:23:34;;;;;;;2.05;0.80;;;17.20;99.90;;;;;;5108733;28;20569;-65
2023/10/04 03:26:04;;;;;;;0.90;0.63;;;17.20;99.90;;;;;;5109766;28;20287;-65
2023/10/04 03:28:33;;;;;;;2.95;0.98;;;17.20;99.90;;;;;;5106211;28;20208;-65
2023/10/04 03:31:03;;;;;;;1.27;0.77;;;17.20;99.90;;;;;;5129234;27;20222;-65
2023/10/04 03:33:35;;;;;;;2.47;0.85;;;17.20;99.90;;;;;;5106427;28;20234;-65
2023/10/04 03:36:05;;;;;;;0.88;0.88;;;17.30;99.90;;;;;;5106773;28;20679;-65
2023/10/04 03:38:34;;;;;;;1.50;0.70;;;17.20;99.90;;;;;;5108538;28;20192;-65
2023/10/04 03:41:03;;;;;;;1.13;0.80;;;17.20;99.90;;;;;;5142488;27;20210;-65
2023/10/04 03:43:30;;;;;;;1.75;1.00;;;17.20;99.90;;;;;;5104080;28;20246;-65
2023/10/04 03:46:03;;;;;;;2.75;1.13;;;17.20;99.90;;;;;;5109595;28;20207;-65
2023/10/04 03:48:30;;;;;;;2.72;1.25;;;17.20;99.90;;;;;;5107264;28;20659;-66
2023/10/04 03:51:04;;;;;;;2.83;0.93;;;17.20;99.90;;;;;;5104520;27;20717;-65
2023/10/04 03:53:31;;;;;;;2.83;0.82;;;17.20;99.90;;;;;;5105088;28;20230;-66
2023/10/04 03:56:04;;;;;;;1.05;0.88;;;17.20;99.90;;;;;;5106596;28;20681;-65
2023/10/04 03:58:34;;;;;;;0.47;0.47;;;17.20;99.90;;;;;;5106376;28;20258;-64
2023/10/04 04:01:01;;;;;;;1.40;0.73;;;17.20;99.90;;;;;;5106039;28;20268;-65
2023/10/04 04:03:30;;;;;;;1.73;0.77;;;17.20;99.90;;;;;;5105011;28;20194;-65
2023/10/04 04:05:58;;;;;;;1.05;0.73;;;17.20;99.90;;;;;;5109418;28;20279;-65
2023/10/04 04:08:26;;;;;;;1.20;0.80;;;17.20;99.90;;;;;;5108252;28;20282;-65
2023/10/04 04:10:54;;;;;;;1.65;0.73;;;17.20;99.90;;;;;;5105734;28;20531;-65
2023/10/04 04:13:21;;;;;;;1.25;0.82;;;17.20;99.90;;;;;;5108398;28;20261;-65
2023/10/04 04:15:48;;;;;;;0.95;0.70;;;17.20;99.90;;;;;;5110081;28;20192;-65
2023/10/04 04:18:20;;;;;;;2.25;1.00;;;17.20;99.90;;;;;;5102419;28;20278;-66
2023/10/04 04:20:50;;;;;;;0.70;0.70;;;17.10;99.90;;;;;;5109397;28;20614;-66
2023/10/04 04:23:18;;;;;;;1.13;0.80;;;17.10;99.90;;;;;;5108494;28;20191;-64
2023/10/04 04:25:48;;;;;;;0.80;0.75;;;17.10;99.90;;;;;;5102273;28;20634;-65
2023/10/04 04:28:18;;;;;;;0.75;0.70;;;17.10;99.90;;;;;;5108671;28;20219;-65
2023/10/04 04:30:46;;;;;;;1.75;0.70;;;17.00;99.90;;;;;;5124323;28;20210;-65
2023/10/04 04:33:16;;;;;;;0.95;0.90;;;17.10;99.90;;;;;;5134657;27;20214;-65
2023/10/04 04:35:52;;;;;;;0.68;0.63;;;17.10;99.90;;;;;;5143601;27;20215;-64
2023/10/04 04:38:21;;;;;;;1.73;0.90;;;17.00;99.90;;;;;;5107052;28;20286;-66
2023/10/04 04:40:56;;;;;;;1.45;0.98;;;16.90;99.90;;;;;;5105937;28;20207;-65
2023/10/04 04:43:36;;;;;;;1.15;0.90;;;16.90;99.90;;;;;;5108488;28;20249;-65
2023/10/04 04:46:08;;;;;;;1.75;0.65;;;16.90;99.90;;;;;;5108589;28;20244;-66
2023/10/04 04:48:37;;;;;;;2.10;0.73;;;16.90;99.90;;;;;;5139427;27;20241;-65
2023/10/04 04:51:11;;;;;;;1.13;0.80;;;16.90;99.90;;;;;;5108312;28;20199;-65
2023/10/04 04:53:43;;;;;;;6.50;1.27;;;16.90;99.90;;;;;;5144536;27;20223;-65
2023/10/04 04:56:15;;;;;;;7.40;1.10;;;16.90;99.90;;;;;;5125434;27;20211;-65
2023/10/04 04:58:48;;;;;;;1.50;1.00;;;16.90;99.90;;;;;;5110756;28;20305;-66
2023/10/04 05:01:16;;;;;;;0.88;0.75;;;16.90;99.90;;;;;;5110504;28;20203;-65
2023/10/04 05:03:45;;;;;;;1.20;0.82;;;16.90;99.90;;;;;;5110114;28;20192;-64
2023/10/04 05:06:16;;;;;;;0.70;0.70;;;16.90;99.90;;;;;;5106576;28;20635;-65
2023/10/04 05:08:43;;;;;;;1.15;0.70;;;16.90;99.90;;;;;;5108187;28;20418;-66
2023/10/04 05:11:10;;;;;;;1.92;1.23;;;16.80;99.90;;;;;;5112347;28;20221;-66
2023/10/04 05:13:39;;;;;;;2.25;0.82;;;16.80;99.90;;;;;;5113307;28;20212;-66
2023/10/04 05:16:06;;;;;;;1.42;1.00;;;16.80;99.90;;;;;;5109947;28;20184;-65
2023/10/04 05:18:34;;;;;;;1.95;0.95;;;16.80;99.90;;;;;;5112754;28;20200;-65
2023/10/04 05:21:04;;;;;;;2.78;1.10;;;16.80;99.90;;;;;;5113780;28;20208;-65
2023/10/04 05:23:31;;;;;;;3.53;1.00;;;16.80;99.90;;;;;;5108477;28;20546;-66
2023/10/04 05:25:59;;;;;;;1.20;0.90;;;16.80;99.90;;;;;;5113548;28;20242;-65
2023/10/04 05:28:27;;;;;;;1.50;0.90;;;16.80;99.90;;;;;;5112596;28;20282;-65
2023/10/04 05:30:56;;;;;;;1.58;0.90;;;16.80;99.90;;;;;;5109088;28;20196;-65
2023/10/04 05:33:24;;;;;;;1.75;1.25;;;16.80;99.90;;;;;;5111184;28;20204;-65
2023/10/04 05:35:53;;;;;;;1.20;0.70;;;16.80;99.90;;;;;;5112360;28;20302;-65
2023/10/04 05:38:21;;;;;;;1.35;0.90;;;16.80;99.90;;;;;;5105576;28;20659;-65
2023/10/04 05:40:48;;;;;;;2.28;0.90;;;17.20;99.90;;;;;;5112826;28;20264;-65
2023/10/04 05:43:16;;;;;;;0.93;0.65;;;16.80;99.90;;;;;;5109676;28;20608;-64
2023/10/04 05:45:44;;;;;;;2.97;1.08;;;16.90;99.90;;;;;;5107683;28;20436;-64
2023/10/04 05:48:15;;;;;;;6.38;1.30;;;16.90;99.90;;;;;;5108985;28;20997;-64
2023/10/04 05:50:42;;;;;;;1.83;1.15;;;16.90;99.90;;;;;;5112011;27;20199;-64
2023/10/04 05:53:19;;;;;;;3.67;1.20;;;16.80;99.90;;;;;;5108653;28;20899;-64
2023/10/04 05:55:47;;;;;;;1.97;1.00;;;16.80;99.90;;;;;;5112304;28;20195;-64
2023/10/04 05:58:14;;;;;;;0.80;0.70;;;16.90;99.90;;;;;;5104796;28;20729;-65
2023/10/04 06:00:41;;;;;;;0.77;0.77;;;16.90;99.90;;;;;;5107068;28;20598;-64
2023/10/04 06:03:10;;;;;;;4.80;1.20;;;16.90;99.90;;;;;;5110614;28;20195;-64
2023/10/04 06:05:40;;;;;;;2.23;1.17;;;16.90;99.90;;;;;;5112711;28;20659;-65
2023/10/04 06:08:11;;;;;;;2.72;0.95;;;16.90;99.90;;;;;;5107787;28;20196;-65
2023/10/04 06:10:39;;;;;;;2.15;0.90;;;16.90;99.90;;;;;;5105459;27;20655;-65
2023/10/04 06:13:10;;;;;;;3.88;1.30;;;16.90;99.90;;;;;;5108766;28;20208;-65
2023/10/04 06:15:40;;;;;;;1.40;0.80;;;16.90;99.90;;;;;;5108820;28;20245;-65
2023/10/04 06:18:08;;;;;;;1.30;0.77;;;16.90;99.90;;;;;;5109734;28;20200;-65
2023/10/04 06:20:36;;;;;;;4.45;1.00;;;16.90;99.90;;;;;;5107985;27;20199;-65
2023/10/04 06:23:06;;;;;;;1.80;1.00;;;16.90;99.90;;;;;;5109132;28;20278;-64
2023/10/04 06:25:35;;;;;;;3.60;1.05;;;17.00;99.90;;;;;;5111266;27;20192;-65
2023/10/04 06:28:04;;;;;;;2.83;1.00;;;17.10;99.90;;;;;;5139711;27;20218;-65
2023/10/04 06:30:33;;;;;;;2.30;1.10;;;17.00;99.90;;;;;;5106161;28;20278;-65
2023/10/04 06:33:04;;;;;;;3.03;1.20;;;17.00;99.90;;;;;;5108236;27;20234;-65
2023/10/04 06:35:32;;;;;;;2.53;1.00;;;17.00;99.90;;;;;;5102520;28;20203;-65
2023/10/04 06:38:02;;;;;;;1.38;0.90;;;17.00;99.90;;;;;;5108981;28;20195;-65
2023/10/04 06:40:31;;;;;;;0.88;0.80;;;17.00;99.90;;;;;;5107701;27;20230;-65
2023/10/04 06:43:01;;;;;;;2.22;1.00;;;17.00;99.90;;;;;;5108203;28;20774;-65
2023/10/04 06:45:28;;;;;;;1.20;0.80;;;17.00;99.90;;;;;;5110950;28;20279;-65
2023/10/04 06:47:57;;;;;;;1.50;1.00;;;17.00;99.90;;;;;;5107570;27;20575;-65
2023/10/04 06:50:28;;;;;;;2.30;0.95;;;17.00;99.90;;;;;;5106233;28;20282;-65
2023/10/04 06:52:57;;;;;;;1.90;1.00;;;17.00;99.90;;;;;;5107883;28;20287;-65
2023/10/04 06:55:24;;;;;;;2.20;0.80;;;17.00;99.90;;;;;;5105933;27;20196;-65
2023/10/04 06:57:55;;;;;;;0.85;0.80;;;17.10;99.90;;;;;;5107379;28;20320;-65
2023/10/04 07:00:26;;;;;;;2.47;0.75;;;17.10;99.90;;;;;;5109633;28;20200;-65
2023/10/04 07:02:58;;;;;;;3.20;1.13;;;17.20;99.90;;;;;;5103888;28;20526;-65
2023/10/04 07:05:26;;;;;;;1.13;1.02;;;17.20;99.90;;;;;;5110215;28;20216;-65
2023/10/04 07:07:56;;;;;;;0.68;0.65;;;17.20;99.90;;;;;;5107606;28;20374;-66
2023/10/04 07:10:25;;;;;;;2.67;1.23;;;17.20;99.90;;;;;;5107296;28;20297;-65
2023/10/04 07:12:56;;;;;;;6.35;1.40;;;17.10;99.90;;;;;;5109126;28;20223;-64
2023/10/04 07:15:27;;;;;;;3.40;0.90;;;17.20;99.90;;;;;;5108135;28;20256;-65
2023/10/04 07:17:54;;;;;;;2.25;0.88;;;17.20;99.90;;;;;;5106221;28;20253;-65
2023/10/04 07:20:24;;;;;;;2.20;1.30;;;17.20;99.90;;;;;;5110210;28;20310;-66
2023/10/04 07:22:58;;;;;;;1.80;0.80;;;17.20;99.90;;;;;;5104834;28;20208;-64
2023/10/04 07:25:27;;;;;;;2.30;1.00;;;17.20;99.90;;;;;;5107991;28;20203;-64
2023/10/04 07:27:57;;;;;;;3.20;1.08;;;17.20;99.90;;;;;;5108458;28;20203;-65
2023/10/04 07:30:26;;;;;;;1.45;0.80;;;17.20;99.90;;;;;;5105912;28;20184;-65
2023/10/04 07:32:53;;;;;;;4.35;1.20;;;17.20;99.90;;;;;;5107364;28;20215;-64
2023/10/04 07:35:24;;;;;;;1.73;1.00;;;17.20;99.90;;;;;;5109808;28;20192;-64
2023/10/04 07:37:52;;;;;;;0.98;0.88;;;17.20;99.90;;;;;;5107411;28;20211;-64
2023/10/04 07:40:26;;;;;;;1.58;1.02;;;17.30;99.90;;;;;;5107030;28;20685;-65
2023/10/04 07:42:55;;;;;;;1.50;1.10;;;17.20;99.90;;;;;;5106110;28;20287;-64
2023/10/04 07:45:23;;;;;;;2.08;1.08;;;17.30;99.90;;;;;;5108661;27;20248;-64
2023/10/04 07:47:51;;;;;;;2.97;1.25;;;17.30;99.90;;;;;;5103929;28;20195;-65
2023/10/04 07:50:22;;;;;;;0.73;0.73;;;17.30;99.90;;;;;;5107525;28;20188;-66
2023/10/04 07:52:51;;;;;;;1.05;0.93;;;17.30;99.90;;;;;;5106748;28;20199;-65
2023/10/04 07:55:18;;;;;;;1.73;0.90;;;17.30;99.90;;;;;;5107368;28;20496;-65
2023/10/04 07:57:46;;;;;;;4.30;1.05;;;17.40;99.90;;;;;;5142069;27;20240;-65
2023/10/04 08:00:15;;;;;;;1.95;1.00;;;17.40;99.90;;;;;;5108407;28;20592;-65
2023/10/04 08:02:46;;;;;;;2.83;1.17;;;17.40;99.90;;;;;;5105178;28;20229;-65
2023/10/04 08:05:18;;;;;;;1.63;1.10;;;17.40;99.90;;;;;;5104920;28;20230;-64
2023/10/04 08:07:45;;;;;;;2.35;1.00;;;17.40;99.90;;;;;;5107598;28;20227;-64
2023/10/04 08:10:13;;;;;;;1.58;1.20;;;17.40;99.90;;;;;;5108364;28;20196;-65
2023/10/04 08:12:41;;;;;;;2.92;1.13;;;17.40;99.90;;;;;;5107029;28;20228;-64
2023/10/04 08:15:13;;;;;;;3.38;1.20;;;17.50;99.90;;;;;;5109206;28;20187;-64
2023/10/04 08:17:43;;;;;;;2.58;1.08;;;17.50;99.90;;;;;;5109217;28;20199;-64
2023/10/04 08:20:13;;;;;;;2.75;1.05;;;17.60;99.90;;;;;;5109490;28;20196;-65
2023/10/04 08:22:41;;;;;;;1.67;1.10;;;17.60;99.90;;;;;;5107664;28;20279;-65
2023/10/04 08:25:10;;;;;;;4.55;1.30;;;17.60;99.90;;;;;;5111018;28;20188;-64
2023/10/04 08:27:37;;;;;;;2.05;1.10;;;17.70;99.90;;;;;;5110568;28;20203;-65
2023/10/04 08:30:06;;;;;;;2.03;1.15;;;17.70;99.90;;;;;;5113098;27;20209;-65
2023/10/04 08:32:34;;;;;;;1.52;1.10;;;17.70;99.90;;;;;;5111814;28;20303;-65
2023/10/04 08:35:03;;;;;;;2.65;1.17;;;17.70;99.90;;;;;;5104651;28;20215;-64
2023/10/04 08:37:31;;;;;;;4.43;1.33;;;17.60;99.90;;;;;;5101051;28;20655;-64
2023/10/04 08:39:58;;;;;;;6.28;1.42;;;17.60;99.90;;;;;;5114011;27;21020;-65
2023/10/04 08:42:25;;;;;;;1.40;1.10;;;17.50;99.90;;;;;;5103657;28;20249;-65
2023/10/04 08:44:52;;;;;;;2.72;1.15;;;17.50;99.90;;;;;;5112892;28;20195;-65
2023/10/04 08:47:22;;;;;;;1.60;1.23;;;17.50;99.90;;;;;;5101284;28;20211;-66
2023/10/04 08:49:56;;;;;;;1.15;1.05;;;17.50;99.90;;;;;;5110355;28;20294;-67
2023/10/04 08:52:35;;;;;;;2.45;1.30;;;17.50;99.90;;;;;;5110677;28;20570;-65
2023/10/04 08:55:07;;;;;;;1.67;1.00;;;17.50;99.90;;;;;;5109832;27;20540;-65
2023/10/04 08:57:38;;;;;;;2.15;1.00;;;17.60;99.90;;;;;;5145529;27;20216;-65
2023/10/04 09:00:13;;;;;;;2.67;1.55;;;17.60;99.90;;;;;;5112433;28;20200;-65
2023/10/04 09:02:45;;;;;;;1.85;1.33;;;17.60;99.90;;;;;;5111143;28;20187;-65
2023/10/04 09:05:16;;;;;;;1.75;1.30;;;17.60;99.90;;;;;;5112476;28;20596;-65
2023/10/04 09:07:45;;;;;;;2.13;1.02;;;17.60;99.90;;;;;;5110865;28;20210;-66
2023/10/04 09:10:16;;;;;;;2.67;1.33;;;17.70;99.90;;;;;;5111491;28;20211;-64
2023/10/04 09:12:44;;;;;;;2.17;1.05;;;17.60;99.90;;;;;;5111558;27;20192;-65
2023/10/04 09:15:13;;;;;;;7.05;1.30;;;17.70;99.90;;;;;;5110869;28;20215;-66
2023/10/04 09:17:46;;;;;;;3.05;1.23;;;17.70;99.90;;;;;;5112386;28;20192;-65
2023/10/04 09:20:15;;;;;;;3.90;1.70;;;17.70;99.90;;;;;;5111962;28;20619;-64
2023/10/04 09:22:44;;;;;;;2.05;1.20;;;17.70;99.90;;;;;;5110855;28;20814;-65
2023/10/04 09:25:11;;;;;;;4.07;1.30;;;17.80;99.90;;;;;;5111790;28;20184;-65
2023/10/04 09:27:41;;;;;;;1.63;1.20;;;17.70;99.90;;;;;;5110010;28;20283;-65
2023/10/04 09:30:29;;;;;;;2.30;1.45;;;17.70;99.90;;;;;;5110590;28;20603;-65
2023/10/04 09:32:56;;;;;;;2.85;1.20;;;17.70;99.90;;;;;;5102060;28;20218;-66
2023/10/04 09:35:23;;;;;;;2.53;1.42;;;17.60;99.90;;;;;;5144466;27;20245;-66
2023/10/04 09:38:00;;;;;;;1.85;1.05;;;17.60;99.90;;;;;;5101759;27;20200;-64
2023/10/04 09:40:28;;;;;;;1.90;1.20;;;17.60;99.90;;;;;;5108809;28;20196;-65
2023/10/04 09:42:56;;;;;;;3.00;1.10;;;17.60;99.90;;;;;;5108827;28;20208;-65
2023/10/04 09:45:24;;;;;;;1.75;1.15;;;17.60;99.90;;;;;;5111513;28;20282;-65
2023/10/04 09:47:54;;;;;;;2.65;1.63;;;17.60;99.90;;;;;;5110685;28;20561;-66
2023/10/04 09:50:22;;;;;;;4.25;1.42;;;17.60;99.90;;;;;;5108317;27;20291;-66
2023/10/04 09:52:50;;;;;;;1.95;1.20;;;17.50;99.90;;;;;;5110051;28;20215;-66
2023/10/04 09:55:20;;;;;;;3.40;1.40;;;17.50;99.90;;;;;;5110107;28;20218;-65
2023/10/04 09:57:49;;;;;;;2.20;1.42;;;17.50;99.90;;;;;;5105760;28;20231;-65
2023/10/04 10:00:22;;;;;;;2.05;0.93;;;17.60;99.90;;;;;;5111272;28;20207;-66
2023/10/04 10:02:53;;;;;;;2.22;1.23;;;17.60;99.90;;;;;;5109828;28;20188;-66
2023/10/04 10:05:27;;;;;;;3.17;1.35;;;17.60;99.90;;;;;;5110264;28;20191;-66
2023/10/04 10:08:02;;;;;;;4.65;1.25;;;17.60;99.90;;;;;;5106547;28;20192;-66
2023/10/04 10:10:34;;;;;;;2.03;1.38;;;17.50;99.90;;;;;;5110859;28;20183;-66
2023/10/04 10:13:04;;;;;;;2.83;1.27;;;17.50;99.90;;;;;;5110603;28;20188;-65
2023/10/04 10:15:32;;;;;;;1.42;1.10;;;17.50;99.90;;;;;;5111413;27;20235;-65
2023/10/04 10:18:00;;;;;;;1.73;1.05;;;17.50;99.90;;;;;;5110326;28;20244;-65
2023/10/04 10:20:27;;;;;;;1.67;1.10;;;17.60;99.90;;;;;;5104710;27;20231;-65
2023/10/04 10:23:14;;;;;;;2.55;1.30;;;17.90;99.90;;;;;;5108293;28;20298;-66
2023/10/04 10:26:18;;;;;;;2.97;1.30;;;18.50;99.90;;;;;;5106950;28;20587;-66
2023/10/04 10:28:47;;;;;;;1.65;1.35;;;18.90;99.90;;;;;;5110483;28;20585;-66
2023/10/04 10:31:21;;;;;;;4.00;1.63;;;19.30;99.90;;;;;;5111110;27;20253;-66
2023/10/04 10:33:50;;;;;;;1.92;1.17;;;19.60;99.90;;;;;;5110052;27;20224;-66
2023/10/04 10:36:22;;;;;;;2.75;1.70;;;19.90;99.50;;;;;;5106227;27;20311;-66
2023/10/04 10:38:51;;;;;;;2.03;1.55;;;20.00;98.20;;;;;;5108478;28;20208;-66
2023/10/04 10:42:07;;;;;;;2.40;1.30;;;20.10;97.30;;;;;;5110612;27;20192;-66
2023/10/04 10:44:37;;;;;;;3.30;1.40;;;20.40;96.60;;;;;;5105128;28;20295;-66
2023/10/04 10:47:27;;;;;;;3.90;1.52;;;20.50;95.80;;;;;;5109774;28;20206;-66
2023/10/04 10:49:58;;;;;;;2.95;1.25;;;20.30;95.50;;;;;;5107741;27;20208;-66
2023/10/04 10:52:31;;;;;;;2.13;1.40;;;20.10;95.30;;;;;;5098155;28;20763;-65
2023/10/04 10:55:00;;;;;;;3.33;1.80;;;20.00;95.30;;;;;;5105555;28;20298;-66
2023/10/04 10:57:29;;;;;;;2.05;1.20;;;19.90;95.20;;;;;;5109916;28;20254;-66
2023/10/04 11:00:01;;;;;;;1.73;1.33;;;19.80;95.50;;;;;;5110264;28;20188;-66
2023/10/04 11:02:28;;;;;;;2.60;1.40;;;19.70;96.10;;;;;;5108366;28;20187;-66
2023/10/04 11:04:56;;;;;;;2.03;1.40;;;19.60;95.70;;;;;;5109109;27;20184;-66
2023/10/04 11:07:26;;;;;;;2.15;1.30;;;19.50;95.50;;;;;;5108854;28;20291;-66
2023/10/04 11:09:53;;;;;;;1.40;1.00;;;19.40;95.60;;;;;;5109438;27;20248;-65
2023/10/04 11:12:22;;;;;;;1.23;1.05;;;19.30;95.60;;;;;;5109574;28;20611;-65
2023/10/04 11:14:49;;;;;;;1.88;1.13;;;19.30;95.70;;;;;;5108357;28;20200;-66
2023/10/04 11:17:20;;;;;;;2.50;1.35;;;19.20;95.80;;;;;;5109980;28;20207;-65
2023/10/04 11:19:50;;;;;;;3.53;1.23;;;19.10;95.80;;;;;;5110028;27;20202;-66
2023/10/04 11:22:19;;;;;;;1.48;1.15;;;19.00;96.00;;;;;;5105070;28;20291;-67
2023/10/04 11:24:46;;;;;;;2.10;1.50;;;18.90;96.20;;;;;;5109513;27;20187;-67
2023/10/04 11:27:22;;;;;;;2.35;1.33;;;19.00;96.40;;;;;;5109080;28;20224;-65
2023/10/04 11:29:50;;;;;;;1.48;1.38;;;18.90;96.40;;;;;;5111662;27;20674;-65
2023/10/04 11:32:18;;;;;;;3.15;1.33;;;19.00;96.50;;;;;;5107093;28;20576;-65
2023/10/04 11:34:46;;;;;;;1.63;1.10;;;19.00;96.50;;;;;;5107342;28;20235;-65
2023/10/04 11:37:14;;;;;;;2.03;1.20;;;19.00;96.60;;;;;;5105500;27;20200;-65
2023/10/04 11:39:42;;;;;;;1.67;1.25;;;19.00;96.50;;;;;;5109700;28;20222;-65
2023/10/04 11:42:19;;;;;;;3.45;1.40;;;19.00;96.40;;;;;;5109544;27;20547;-66
2023/10/04 11:44:47;;;;;;;2.03;1.60;;;19.00;96.30;;;;;;5110022;28;20670;-65
2023/10/04 11:47:15;;;;;;;2.05;1.20;;;19.00;96.30;;;;;;5110482;27;20663;-65
2023/10/04 11:49:58;;;;;;;3.28;1.40;;;19.00;96.40;;;;;;5107474;28;20202;-65
2023/10/04 11:52:30;;;;;;;3.03;1.60;;;18.90;96.50;;;;;;5097424;28;20316;-65
2023/10/04 11:54:58;;;;;;;4.30;1.30;;;18.80;96.90;;;;;;5107034;27;20757;-66
2023/10/04 11:57:25;;;;;;;3.08;1.92;;;18.70;97.10;;;;;;5112837;27;20289;-66
2023/10/04 11:59:56;;;;;;;2.10;1.40;;;18.60;97.50;;;;;;5106616;28;20197;-66
2023/10/04 12:02:23;;;;;;;2.38;1.45;;;18.50;97.70;;;;;;5107216;28;20298;-66
2023/10/04 12:04:50;;;;;;;4.25;1.50;;;18.50;97.90;;;;;;5108263;28;20664;-66
2023/10/04 12:07:19;;;;;;;2.20;1.40;;;18.40;98.10;;;;;;5110230;27;21010;-66
2023/10/04 12:09:46;;;;;;;2.80;1.80;;;18.50;98.30;;;;;;5108004;28;20563;-66
2023/10/04 12:12:16;;;;;;;2.53;1.40;;;18.50;98.40;;;;;;5108709;28;20227;-66
2023/10/04 12:14:45;;;;;;;3.03;1.45;;;18.60;98.40;;;;;;5121083;27;20230;-66
2023/10/04 12:17:12;;;;;;;3.33;1.60;;;18.60;98.30;;;;;;5109326;28;20192;-66
2023/10/04 12:19:39;;;;;;;6.45;1.75;;;18.70;98.10;;;;;;5103962;28;20286;-66
2023/10/04 12:22:09;;;;;;;2.47;1.60;;;18.80;97.90;;;;;;5108436;28;20200;-66
2023/10/04 12:24:41;;;;;;;3.17;1.83;;;18.90;97.70;;;;;;5108683;28;20261;-66
2023/10/04 12:27:08;;;;;;;4.13;1.67;;;19.10;97.50;;;;;;5106549;28;20206;-66
2023/10/04 12:29:36;;;;;;;6.30;1.88;;;19.40;97.30;;;;;;5107951;28;20223;-66
2023/10/04 12:32:03;;;;;;;7.93;2.33;;;19.50;97.00;;;;;;5137484;27;20273;-65
2023/10/04 12:34:31;;;;;;;2.63;1.38;;;19.60;96.70;;;;;;5105779;28;20813;-66
2023/10/04 12:36:58;;;;;;;2.17;1.50;;;19.70;96.70;;;;;;5107141;28;20273;-66
2023/10/04 12:39:25;;;;;;;2.10;1.35;;;19.90;96.60;;;;;;5142612;27;20202;-65
2023/10/04 12:41:55;;;;;;;2.97;1.52;;;20.30;96.50;;;;;;5105145;28;20248;-66
2023/10/04 12:44:23;;;;;;;3.25;1.58;;;20.50;96.20;;;;;;5108434;28;21032;-66
2023/10/04 12:46:50;;;;;;;3.70;1.90;;;20.30;96.10;;;;;;5103012;28;20330;-66
2023/10/04 12:49:18;;;;;;;2.67;1.50;;;20.20;96.20;;;;;;5104094;28;20774;-66
2023/10/04 12:56:07;;;;;;;2.33;1.50;;;20.00;96.30;;;;;;5094959;27;20203;-66
2023/10/04 12:58:35;;;;;;;3.45;1.90;;;20.10;96.30;;;;;;5104530;28;20645;-66
2023/10/04 13:01:05;;;;;;;3.00;1.90;;;20.10;96.00;;;;;;5115697;28;20194;-66
2023/10/04 13:03:33;;;;;;;1.98;1.55;;;19.90;95.70;;;;;;5103005;28;20555;-66
2023/10/04 13:06:00;;;;;;;2.95;1.73;;;19.70;95.70;;;;;;5113858;28;20203;-66